Terminal Aerodrome Forecast
Issued by NWS

Home | Current Version | Previous Version | Text Only | Print | Product List | Glossary On
Versions: 1 2 3 4 5 6 7 8 9 10 11 12 13 14 15 16
000
FTUS41 KBTV 191200 AAA
TAFMPV
TAF AMD
KMPV 191258Z 1913/2012 00000KT 1/4SM FZFG VV001
     FM191400 00000KT P6SM SKC
     FM192000 17004KT P6SM FEW200=

USA.gov is the U.S. government's official web portal to all federal, state and local government web resources and services.